createdAt,value
2024-02-15T05:09:27.717Z,78.66
2024-02-15T05:12:30.797Z,78.66
2024-02-15T05:15:34.150Z,100.00
2024-02-15T05:18:36.875Z,85.32
2024-02-15T05:21:39.392Z,100.00
2024-02-15T05:24:41.793Z,100.00
2024-02-15T05:27:45.410Z,79.68
2024-02-15T05:30:47.836Z,77.81
2024-02-15T05:33:54.740Z,82.46
2024-02-15T05:36:57.336Z,100.00
2024-02-15T05:39:59.471Z,94.49
2024-02-15T05:43:03.281Z,81.53
2024-02-15T05:46:07.700Z,100.00
2024-02-15T05:49:16.405Z,83.41
2024-02-15T05:52:19.562Z,100.00
2024-02-15T05:55:22.127Z,100.00
2024-02-15T05:58:24.939Z,84.39
2024-02-15T06:01:27.437Z,100.00
2024-02-15T06:04:31.009Z,86.70
2024-02-15T06:07:33.289Z,94.26
2024-02-15T06:10:35.754Z,99.75
2024-02-15T06:13:37.901Z,83.67
2024-02-15T06:16:46.144Z,100.00
2024-02-15T06:19:48.370Z,95.20
2024-02-15T06:22:53.019Z,90.23
2024-02-15T06:26:01.948Z,100.00
2024-02-15T06:29:22.822Z,84.04
2024-02-15T06:32:43.919Z,98.76
2024-02-15T06:36:04.946Z,100.00
2024-02-15T06:39:25.737Z,98.17
2024-02-15T06:42:30.865Z,95.71
2024-02-15T06:45:33.296Z,100.00
2024-02-15T06:48:36.125Z,86.41
2024-02-15T06:51:38.664Z,78.68
2024-02-15T06:54:46.602Z,90.77
2024-02-15T06:57:52.000Z,78.52
2024-02-15T07:00:56.142Z,99.25
2024-02-15T07:03:59.816Z,82.64
2024-02-15T07:07:07.669Z,80.09
2024-02-15T07:10:15.347Z,95.07
2024-02-15T07:13:33.255Z,100.00
2024-02-15T07:16:39.129Z,100.00
2024-02-15T07:19:50.822Z,87.42
2024-02-15T07:22:57.263Z,95.86
2024-02-15T07:26:01.915Z,93.34
2024-02-15T07:29:12.391Z,78.66
2024-02-15T07:32:19.672Z,95.30
2024-02-15T07:35:27.510Z,83.66
2024-02-15T07:38:37.071Z,95.19
2024-02-15T07:41:45.354Z,76.77
2024-02-15T07:44:51.354Z,96.72
2024-02-15T07:47:55.175Z,88.94
2024-02-15T07:51:00.580Z,77.33
2024-02-15T07:54:06.538Z,86.30
2024-02-15T07:57:12.665Z,92.21
2024-02-15T08:00:18.200Z,78.75
2024-02-15T08:03:22.194Z,95.71
2024-02-15T08:06:30.129Z,89.29
2024-02-15T08:09:34.050Z,96.12
2024-02-15T08:12:37.127Z,93.56
2024-02-15T08:15:41.323Z,91.39
2024-02-15T08:18:48.320Z,97.17
2024-02-15T08:21:53.043Z,100.00
2024-02-15T08:24:59.963Z,95.37
2024-02-15T08:28:06.972Z,94.32
2024-02-15T08:31:12.361Z,99.45
2024-02-15T08:34:15.860Z,84.21
2024-02-15T08:37:19.605Z,96.07
2024-02-15T08:40:26.684Z,99.12
2024-02-15T08:43:29.228Z,95.01
2024-02-15T08:46:32.314Z,97.73
2024-02-15T08:49:36.146Z,91.38
2024-02-15T08:52:40.414Z,86.36
2024-02-15T08:55:43.166Z,73.88
2024-02-15T08:58:46.361Z,83.62
2024-02-15T09:01:48.500Z,73.22
2024-02-15T09:04:51.064Z,75.52
2024-02-15T09:07:53.347Z,86.54
2024-02-15T09:10:55.881Z,85.19
2024-02-15T09:13:58.122Z,88.01
2024-02-15T09:17:10.934Z,88.97
2024-02-15T09:20:22.534Z,82.36
2024-02-15T09:23:25.239Z,82.42
2024-02-15T09:26:29.053Z,90.75
2024-02-15T09:29:33.632Z,78.53
2024-02-15T09:32:37.061Z,74.53
2024-02-15T09:35:39.885Z,71.34
2024-02-15T09:38:44.719Z,82.99
2024-02-15T09:41:47.305Z,72.22
2024-02-15T09:44:49.484Z,70.82
2024-02-15T09:47:54.649Z,80.01
2024-02-15T09:50:59.787Z,87.11
2024-02-15T09:54:03.042Z,80.15
2024-02-15T09:57:06.956Z,77.27
2024-02-15T10:00:14.586Z,88.54
2024-02-15T10:03:24.331Z,70.69
2024-02-15T10:06:28.414Z,88.23
2024-02-15T10:09:32.008Z,71.69
2024-02-15T10:12:40.329Z,84.81
2024-02-15T10:15:42.789Z,86.08
2024-02-15T10:18:46.077Z,79.71
2024-02-15T10:21:49.853Z,72.34
2024-02-15T10:24:52.083Z,70.00
2024-02-15T10:28:03.931Z,80.53
2024-02-15T10:31:09.369Z,84.10
2024-02-15T10:34:15.416Z,88.29
2024-02-15T10:37:18.411Z,68.27
2024-02-15T10:40:21.906Z,67.84
2024-02-15T10:43:24.183Z,86.66
2024-02-15T10:46:26.897Z,83.55
2024-02-15T10:49:29.328Z,74.25
2024-02-15T10:52:33.440Z,77.88
2024-02-15T10:55:41.742Z,64.94
2024-02-15T10:58:50.689Z,73.23
2024-02-15T11:01:59.878Z,64.60
2024-02-15T11:05:13.154Z,68.91
2024-02-15T11:08:18.067Z,80.24
2024-02-15T11:11:21.677Z,77.15
2024-02-15T11:14:27.222Z,68.45
2024-02-15T11:17:58.666Z,66.67
2024-02-15T11:21:01.472Z,78.39
2024-02-15T11:24:29.025Z,72.81
2024-02-15T11:27:33.008Z,71.29
2024-02-15T11:30:35.720Z,79.72
2024-02-15T11:33:38.325Z,73.62
2024-02-15T11:36:43.898Z,77.15
2024-02-15T11:39:48.094Z,64.17
2024-02-15T11:42:54.395Z,75.93
2024-02-15T11:45:59.986Z,72.35
2024-02-15T11:49:04.840Z,69.18
2024-02-15T11:52:12.436Z,63.84
2024-02-15T11:55:20.277Z,86.25
2024-02-15T11:58:30.114Z,72.68
2024-02-15T12:01:52.654Z,73.19
2024-02-15T12:05:13.965Z,88.26
2024-02-15T12:08:34.959Z,78.26
2024-02-15T12:11:56.548Z,64.38
2024-02-15T12:15:19.143Z,84.66
2024-02-15T12:18:44.423Z,63.42
2024-02-15T12:21:48.092Z,64.66
2024-02-15T12:25:01.465Z,66.18
2024-02-15T12:28:05.478Z,73.90
2024-02-15T12:31:15.162Z,67.67
2024-02-15T12:34:21.867Z,71.22
2024-02-15T12:37:24.849Z,79.09
2024-02-15T12:40:35.108Z,76.86
2024-02-15T12:43:38.169Z,73.99
2024-02-15T12:46:41.365Z,69.80
2024-02-15T12:49:43.858Z,79.92
2024-02-15T12:52:50.756Z,68.03
2024-02-15T12:55:55.959Z,67.47
2024-02-15T12:58:58.059Z,73.16
2024-02-15T13:02:00.615Z,76.38
2024-02-15T13:05:04.127Z,72.43
2024-02-15T13:08:11.507Z,67.27
2024-02-15T13:11:14.314Z,72.60
2024-02-15T13:14:16.925Z,64.93
2024-02-15T13:17:19.113Z,63.71
2024-02-15T13:20:36.677Z,70.26
2024-02-15T13:23:40.216Z,60.26
2024-02-15T13:26:42.805Z,72.89
2024-02-15T13:29:46.967Z,75.64
2024-02-15T13:32:50.106Z,60.26
2024-02-15T13:35:52.400Z,59.84
2024-02-15T13:38:57.067Z,76.82
2024-02-15T13:41:59.570Z,70.07
2024-02-15T13:45:03.095Z,61.34
2024-02-15T13:48:06.442Z,72.73
2024-02-15T13:51:10.342Z,78.96
2024-02-15T13:54:12.857Z,72.84
2024-02-15T13:57:15.975Z,70.69
2024-02-15T14:00:23.075Z,68.09
2024-02-15T14:03:26.470Z,78.45
2024-02-15T14:06:29.312Z,72.91
2024-02-15T14:09:31.893Z,80.35
2024-02-15T14:12:35.403Z,61.74
2024-02-15T14:15:39.310Z,70.22
2024-02-15T14:18:45.923Z,60.76
2024-02-15T14:21:48.674Z,74.61
2024-02-15T14:24:52.457Z,69.37
2024-02-15T14:27:55.769Z,67.29
2024-02-15T14:31:16.436Z,60.86
2024-02-15T14:34:19.062Z,66.90
2024-02-15T14:37:23.420Z,68.17
2024-02-15T14:40:27.502Z,72.37
2024-02-15T14:43:30.361Z,63.27
2024-02-15T14:46:36.563Z,63.31
2024-02-15T14:49:38.735Z,61.95
2024-02-15T14:52:41.270Z,61.87
2024-02-15T14:55:50.187Z,68.19
2024-02-15T14:58:52.919Z,79.35
2024-02-15T15:02:02.366Z,64.32
2024-02-15T15:05:24.595Z,70.15
2024-02-15T15:08:45.457Z,62.75
2024-02-15T15:12:06.330Z,64.44
2024-02-15T15:15:09.206Z,66.57
2024-02-15T15:18:12.390Z,77.96
2024-02-15T15:21:17.174Z,75.30
2024-02-15T15:24:19.736Z,73.37
2024-02-15T15:27:21.933Z,66.03
2024-02-15T15:30:24.414Z,67.18
2024-02-15T15:33:26.639Z,79.26
2024-02-15T15:36:29.274Z,72.61
2024-02-15T15:39:34.207Z,72.16
2024-02-15T15:42:36.793Z,68.51
2024-02-15T15:45:38.946Z,68.89
2024-02-15T15:48:41.589Z,72.81
2024-02-15T15:51:44.772Z,66.12
2024-02-15T15:54:48.073Z,71.35
2024-02-15T15:57:50.931Z,78.13
2024-02-15T16:00:53.403Z,69.21
2024-02-15T16:03:56.142Z,79.52
2024-02-15T16:06:58.373Z,75.11
2024-02-15T16:10:00.811Z,81.62
2024-02-15T16:13:03.122Z,79.98
2024-02-15T16:16:06.768Z,77.71
2024-02-15T16:19:09.020Z,70.75
2024-02-15T16:22:11.713Z,80.38
2024-02-15T16:25:14.579Z,70.53
2024-02-15T16:28:17.164Z,83.46
2024-02-15T16:31:19.322Z,70.74
2024-02-15T16:34:22.024Z,68.01
2024-02-15T16:37:27.399Z,83.05
2024-02-15T16:40:29.857Z,78.89
2024-02-15T16:43:32.465Z,80.76
2024-02-15T16:46:35.102Z,75.17
2024-02-15T16:49:38.126Z,79.94
2024-02-15T16:52:43.587Z,75.77
2024-02-15T16:55:47.192Z,75.67
2024-02-15T16:58:50.042Z,73.37
2024-02-15T17:01:53.982Z,69.71
2024-02-15T17:04:56.541Z,69.31
2024-02-15T17:07:59.434Z,71.86
2024-02-15T17:11:01.947Z,76.14
2024-02-15T17:14:04.461Z,70.83
2024-02-15T17:17:07.172Z,69.52
2024-02-15T17:20:16.181Z,68.37
2024-02-15T17:23:18.731Z,68.56
